CST,Max TemperatureF,Mean TemperatureF,Min TemperatureF,Max Dew PointF,MeanDew PointF,Min DewpointF,Max Humidity, Mean Humidity, Min Humidity, Max Sea Level PressureIn, Mean Sea Level PressureIn, Min Sea Level PressureIn, Max VisibilityMiles, Mean VisibilityMiles, Min VisibilityMiles, Max Wind SpeedMPH, Mean Wind SpeedMPH, Max Gust SpeedMPH,PrecipitationIn, CloudCover, Events, WindDirDegrees
2012-11-1,71,56,42,45,40,36,87,59,31,30.11,30.03,29.98,10,9,2,8,5,,0.00,0,,188
2012-11-2,77,62,48,55,51,43,88,69,47,30.02,29.98,29.96,10,8,1,8,2,,0.00,0,,111
2012-11-3,82,68,55,63,57,46,94,73,51,30.14,30.02,29.95,10,10,5,18,12,24,0.00,2,Thunderstorm,342
2012-11-4,60,52,44,46,39,37,76,63,45,30.24,30.17,30.12,10,10,10,14,9,18,0.00,1,Thunderstorm,29
2012-11-5,53,48,42,45,40,36,93,76,58,30.14,30.06,29.99,10,9,4,13,5,,0.00,5,Thunderstorm,82
2012-11-6,57,52,46,45,43,39,93,77,59,30.13,30.06,30.00,10,8,0,10,6,,0.00,5,,325
2012-11-7,62,52,41,39,36,32,81,60,32,30.20,30.11,30.05,10,10,10,20,10,25,0.00,0,,341
2012-11-8,60,48,37,41,37,30,87,65,42,30.30,30.22,30.15,10,10,5,12,5,,0.00,0,,128
2012-11-9,71,58,44,46,42,37,76,60,38,30.23,30.15,30.09,10,10,9,17,9,21,0.00,1,,152
2012-11-10,73,62,51,55,51,45,88,66,50,30.21,30.12,30.06,10,10,5,21,13,28,0.00,0,,159
2012-11-11,75,63,51,61,54,46,88,73,50,30.14,30.03,29.92,10,9,2,28,18,34,0.00,7,,174
2012-11-12,51,44,37,48,33,25,88,65,35,30.50,30.39,30.14,10,10,10,21,11,26,0.00,2,,320
2012-11-13,53,43,33,34,29,23,81,63,33,30.56,30.48,30.41,10,8,0,10,6,,0.00,0,,13
2012-11-14,53,45,35,34,31,27,81,64,35,30.47,30.40,30.34,10,10,10,12,7,,0.00,0,,10
2012-11-15,55,42,30,37,32,27,87,69,44,30.41,30.35,30.31,10,10,9,10,7,,0.04,0,,5
2012-11-16,57,45,33,37,31,28,81,65,33,30.45,30.40,30.37,10,10,10,12,8,,0.00,0,,5
2012-11-17,60,46,33,37,33,28,87,64,31,30.48,30.42,30.36,10,9,0,9,6,,0.00,0,,32
2012-11-18,64,48,33,41,36,30,93,63,32,30.41,30.36,30.31,10,7,0,9,4,,0.00,0,,80
2012-11-19,66,54,41,45,40,36,81,62,37,30.35,30.27,30.19,10,8,0,8,3,,0.00,3,,167
2012-11-20,73,62,51,54,47,43,82,64,43,30.21,30.17,30.10,10,10,5,9,4,,0.00,2,,257
2012-11-21,66,55,44,50,45,39,87,72,49,30.31,30.24,30.19,10,9,2,10,6,,0.00,0,,357
2012-11-22,71,56,42,50,45,39,93,69,38,30.24,30.17,30.12,10,6,0,16,6,,0.00,1,,168
2012-11-23,62,50,37,52,38,27,88,60,34,30.40,30.29,30.16,10,9,4,20,10,24,0.37,3,,322
2012-11-24,48,39,30,28,23,18,75,55,34,30.43,30.32,30.18,10,10,3,14,7,,0.00,0,,356
2012-11-25,60,46,33,36,30,25,70,53,31,30.18,30.08,29.98,10,6,0,16,9,,0.00,0,,176
2012-11-26,60,51,42,52,43,34,88,74,62,30.26,30.07,30.01,10,4,0,28,8,33,0.03,7,,109
2012-11-27,48,42,35,36,30,27,81,67,50,30.44,30.36,30.26,10,10,10,24,14,30,0.00,1,,26
2012-11-28,53,42,30,36,31,27,93,68,41,30.52,30.43,30.36,10,8,2,7,4,,0.00,0,,113
2012-11-29,60,46,33,36,32,27,75,59,34,30.39,30.30,30.24,10,10,4,13,7,,0.00,0,,150
2012-11-30,64,52,39,50,42,32,81,71,56,30.28,30.22,30.17,10,10,5,14,7,,0.00,3,,163